Time;durP1;ratioP1;P1;durP2;ratioP2;P2;SDS_P1;SDS_P2;PMS_P1;PMS_P2;Temp;Humidity;BMP_temperature;BMP_pressure;BME280_temperature;BME280_humidity;BME280_pressure;Samples;Min_cycle;Max_cycle;Signal;HPM_P1;HPM_P2
2022/02/21 00:00:29;;;;;;;9.13;1.30;;;;;;;9.40;95.90;98744.38;4942293;28;20138;-90
2022/02/21 00:03:00;;;;;;;9.52;1.45;;;;;;;9.39;93.03;98739.19;4938241;28;20118;-91
2022/02/21 00:05:35;;;;;;;7.47;1.60;;;;;;;9.17;94.09;98686.97;4954933;28;20546;-91
2022/02/21 00:08:02;;;;;;;6.10;1.50;;;;;;;9.57;90.85;98750.28;4954421;28;20051;-89
2022/02/21 00:10:31;;;;;;;4.95;1.40;;;;;;;9.59;89.52;98695.53;4942565;28;20058;-90
2022/02/21 00:12:58;;;;;;;4.25;1.02;;;;;;;9.67;88.05;98666.75;4956008;28;20077;-92
2022/02/21 00:15:27;;;;;;;3.88;1.13;;;;;;;9.66;87.16;98660.63;4935403;29;20051;-91
2022/02/21 00:17:56;;;;;;;4.57;1.23;;;;;;;9.72;87.15;98669.94;4936129;28;20422;-92
2022/02/21 00:20:23;;;;;;;3.95;0.90;;;;;;;9.90;86.93;98694.22;4936238;28;20085;-90
2022/02/21 00:23:13;;;;;;;3.85;1.35;;;;;;;9.91;86.29;98680.03;4951805;28;20514;-92
2022/02/21 00:25:43;;;;;;;7.20;0.95;;;;;;;9.67;85.44;98622.66;4927611;29;20526;-91
2022/02/21 00:28:11;;;;;;;4.63;1.00;;;;;;;9.84;85.61;98656.69;4931741;28;20047;-90
2022/02/21 00:30:41;;;;;;;4.00;0.82;;;;;;;10.06;85.06;98660.44;4936089;28;20051;-91
2022/02/21 00:33:10;;;;;;;4.55;0.98;;;;;;;9.95;84.48;98633.91;4941395;28;20151;-89
2022/02/21 00:35:58;;;;;;;4.97;1.10;;;;;;;9.99;84.36;98622.16;4947233;28;20059;-90
2022/02/21 00:38:25;;;;;;;4.03;1.00;;;;;;;10.09;84.45;98623.16;4941986;28;20061;-90
2022/02/21 00:40:52;;;;;;;3.75;0.90;;;;;;;10.08;84.70;98618.81;4950814;28;20077;-91
2022/02/21 00:43:19;;;;;;;3.58;0.88;;;;;;;10.00;84.72;98595.59;4945335;28;20043;-91
2022/02/21 00:45:48;;;;;;;3.63;0.90;;;;;;;9.93;84.38;98569.72;4949943;28;20132;-90
2022/02/21 00:48:22;;;;;;;3.30;0.73;;;;;;;10.03;83.48;98555.72;4951247;28;20051;-91
2022/02/21 00:50:51;;;;;;;4.10;1.00;;;;;;;10.17;83.56;98573.19;4948465;28;20082;-90
2022/02/21 00:53:18;;;;;;;3.00;0.70;;;;;;;10.07;83.50;98562.44;4942289;28;20134;-91
2022/02/21 00:55:47;;;;;;;4.03;0.75;;;;;;;10.22;84.23;98589.63;4953300;28;20170;-90
2022/02/21 00:58:14;;;;;;;2.25;0.70;;;;;;;9.98;83.98;98541.13;4949537;28;20059;-90
2022/02/21 01:00:42;;;;;;;3.47;0.77;;;;;;;10.29;84.38;98561.72;4953359;28;20047;-90
2022/02/21 01:03:09;;;;;;;3.60;0.80;;;;;;;10.11;84.38;98534.81;4933465;28;20039;-91
2022/02/21 01:05:40;;;;;;;2.05;0.70;;;;;;;9.92;84.57;98497.47;4939858;28;20046;-89
2022/02/21 01:08:08;;;;;;;3.33;0.80;;;;;;;10.05;84.08;98522.06;4947209;28;20043;-92
2022/02/21 01:10:42;;;;;;;3.30;0.80;;;;;;;10.09;84.34;98520.03;4953156;28;20047;-90
2022/02/21 01:13:12;;;;;;;2.65;0.70;;;;;;;9.94;84.25;98482.34;4945215;28;20043;-91
2022/02/21 01:15:39;;;;;;;3.70;0.60;;;;;;;10.14;83.75;98545.19;4948568;28;20070;-89
2022/02/21 01:18:06;;;;;;;6.25;0.90;;;;;;;10.13;84.39;98514.41;4951089;28;20604;-90
2022/02/21 01:20:41;;;;;;;3.05;0.60;;;;;;;9.98;87.49;98527.91;4951129;28;20088;-91
2022/02/21 01:23:11;;;;;;;3.50;0.85;;;;;;;9.69;91.68;98559.13;4946370;28;20055;-90
2022/02/21 01:25:37;;;;;;;3.63;0.85;;;;;;;9.37;95.99;98575.50;4950503;28;20503;-89
2022/02/21 01:28:06;;;;;;;3.72;0.88;;;;;;;9.17;97.75;98559.34;4955909;28;20379;-89
2022/02/21 01:30:38;;;;;;;5.15;0.80;;;;;;;9.01;99.67;98589.47;4947672;28;20062;-90
2022/02/21 01:33:12;;;;;;;5.55;1.25;;;;;;;8.96;100.00;98659.41;4941197;28;20383;-93
2022/02/21 01:35:43;;;;;;;4.97;1.17;;;;;;;8.93;100.00;98668.38;4947923;28;20055;-89
2022/02/21 01:38:16;;;;;;;5.88;1.08;;;;;;;8.65;100.00;98727.44;4928683;28;20047;-91
2022/02/21 01:41:08;;;;;;;4.70;0.70;;;;;;;7.88;99.65;98672.59;4930252;28;20074;-93
2022/02/21 01:43:57;;;;;;;2.65;0.77;;;;;;;7.57;100.00;98671.03;4939946;28;20048;-91
2022/02/21 01:46:38;;;;;;;4.55;0.90;;;;;;;7.36;99.18;98707.47;4941234;28;20083;-92
2022/02/21 01:49:08;;;;;;;5.30;0.88;;;;;;;7.03;96.85;98686.63;4944525;28;20110;-90
2022/02/21 01:51:39;;;;;;;4.90;0.60;;;;;;;6.97;95.93;98694.88;4954367;28;20493;-92
2022/02/21 01:54:08;;;;;;;8.73;1.15;;;;;;;6.94;95.99;98671.38;4934133;28;20122;-91
2022/02/21 01:56:37;;;;;;;4.15;0.60;;;;;;;7.06;94.05;98667.19;4924516;29;20162;-90
2022/02/21 01:59:12;;;;;;;7.03;0.95;;;;;;;7.18;94.33;98720.88;4960061;28;20051;-92
2022/02/21 02:01:40;;;;;;;6.20;0.80;;;;;;;7.31;95.09;98733.22;4942255;29;20047;-92
2022/02/21 02:04:06;;;;;;;6.35;0.65;;;;;;;7.11;94.07;98704.59;4960657;28;20191;-91
2022/02/21 02:06:34;;;;;;;3.08;0.40;;;;;;;7.24;91.00;98725.78;4935374;29;20047;-91
2022/02/21 02:09:03;;;;;;;0.90;0.32;;;;;;;7.13;90.20;98718.50;4956871;28;20127;-93
2022/02/21 02:11:34;;;;;;;1.85;0.40;;;;;;;7.07;90.60;98739.94;4963642;28;20058;-91
2022/02/21 02:14:03;;;;;;;6.38;0.50;;;;;;;6.76;90.57;98733.00;4953557;28;20497;-92
2022/02/21 02:16:35;;;;;;;1.70;0.40;;;;;;;6.60;87.19;98717.25;4954081;28;20047;-90
2022/02/21 02:19:02;;;;;;;2.75;1.05;;;;;;;6.63;89.18;98729.34;4958082;28;20054;-92
2022/02/21 02:21:35;;;;;;;3.15;0.60;;;;;;;6.55;89.78;98728.97;4956172;28;20046;-92
2022/02/21 02:24:08;;;;;;;5.38;0.60;;;;;;;6.45;87.95;98726.03;4946933;28;20047;-91
2022/02/21 02:26:54;;;;;;;4.72;0.50;;;;;;;6.30;88.55;98724.22;4949908;28;20047;-93
2022/02/21 02:29:23;;;;;;;3.08;0.55;;;;;;;6.34;86.89;98738.91;4951793;28;20580;-92
2022/02/21 02:31:55;;;;;;;1.60;0.57;;;;;;;6.30;86.17;98758.41;4955294;28;20066;-90
2022/02/21 02:34:30;;;;;;;2.88;0.77;;;;;;;5.91;87.09;98725.50;4937847;28;20703;-93
2022/02/21 02:36:57;;;;;;;4.95;0.52;;;;;;;6.13;86.39;98780.38;4967873;28;20067;-92
2022/02/21 02:39:27;;;;;;;4.43;0.70;;;;;;;6.05;85.76;98773.84;4961210;28;20043;-93
2022/02/21 02:41:56;;;;;;;;;;;;;;;6.13;86.80;98787.41;4954242;28;20098;-91
2022/02/21 02:44:23;;;;;;;4.95;0.63;;;;;;;5.81;88.06;98733.97;4947509;28;20068;-92
2022/02/21 02:46:53;;;;;;;2.22;0.50;;;;;;;5.85;87.43;98757.31;4954754;28;20457;-93
2022/02/21 02:49:28;;;;;;;2.58;0.70;;;;;;;5.95;86.75;98795.38;4956638;28;20051;-92
2022/02/21 02:51:58;;;;;;;3.72;0.70;;;;;;;5.82;86.88;98759.28;4948544;28;20494;-93
2022/02/21 02:54:28;;;;;;;3.92;0.70;;;;;;;5.70;90.86;98773.06;4951818;28;20044;-94
2022/02/21 02:57:03;;;;;;;4.15;0.70;;;;;;;5.42;90.08;98729.03;4971351;28;20058;-92
2022/02/21 02:59:30;;;;;;;4.20;0.88;;;;;;;5.49;90.84;98749.66;4959186;28;20055;-92
2022/02/21 03:01:59;;;;;;;3.65;0.60;;;;;;;5.72;88.71;98782.56;4958209;28;20113;-92
2022/02/21 03:04:30;;;;;;;4.43;0.90;;;;;;;5.45;90.77;98747.25;4950898;28;20043;-94
2022/02/21 03:07:00;;;;;;;3.63;0.75;;;;;;;5.46;91.18;98756.81;4940110;28;20043;-92
2022/02/21 03:09:40;;;;;;;4.90;0.90;;;;;;;5.38;92.82;98740.63;4951883;28;20057;-93
2022/02/21 03:12:18;;;;;;;;;;;;;;;;;;;;;
2022/02/21 03:14:57;;;;;;;5.28;0.77;;;;;;;5.59;91.63;98790.22;4954733;28;20057;-92
2022/02/21 03:17:25;;;;;;;2.17;0.65;;;;;;;5.67;90.34;98792.44;4973325;28;20055;-91
2022/02/21 03:19:54;;;;;;;6.28;0.70;;;;;;;5.47;92.37;98784.78;4961454;28;20478;-90
2022/02/21 03:22:23;;;;;;;2.67;0.93;;;;;;;5.47;92.76;98803.16;4964941;28;20043;-92
2022/02/21 03:24:51;;;;;;;1.70;0.70;;;;;;;5.62;88.27;98813.72;4968776;28;20035;-91
2022/02/21 03:27:18;;;;;;;1.98;0.57;;;;;;;5.60;89.63;98806.84;4977922;28;20062;-93
2022/02/21 03:29:47;;;;;;;5.57;0.82;;;;;;;5.37;91.08;98797.50;4976857;28;20035;-96
2022/02/21 03:32:16;;;;;;;5.03;0.70;;;;;;;5.47;89.56;98821.53;4966272;28;20059;-91
2022/02/21 03:34:44;;;;;;;4.82;0.88;;;;;;;5.48;87.58;98803.06;4965715;28;20051;-94
2022/02/21 03:37:17;;;;;;;3.75;0.90;;;;;;;5.54;88.11;98833.41;4973771;28;20053;-92
2022/02/21 03:39:46;;;;;;;6.03;0.90;;;;;;;5.35;83.78;98801.16;4954366;28;20085;-92
2022/02/21 03:42:15;;;;;;;2.35;0.70;;;;;;;5.57;83.04;98833.25;4946114;28;20046;-90
2022/02/21 03:44:44;;;;;;;3.72;0.90;;;;;;;5.61;81.86;98840.03;4952435;28;20067;-92
2022/02/21 03:47:15;;;;;;;3.85;0.73;;;;;;;5.29;81.90;98847.78;4963143;28;20053;-92
2022/02/21 03:49:48;;;;;;;7.95;1.13;;;;;;;5.13;83.49;98843.38;4955454;28;20062;-95
2022/02/21 03:52:16;;;;;;;4.90;0.95;;;;;;;5.17;82.36;98835.28;4915301;28;20070;-89
2022/02/21 03:54:43;;;;;;;3.10;0.77;;;;;;;5.35;80.61;98882.53;4942833;28;20064;-92
2022/02/21 03:57:19;;;;;;;2.85;0.50;;;;;;;5.20;78.79;98876.25;4959587;28;20154;-92
2022/02/21 03:59:52;;;;;;;2.45;0.43;;;;;;;5.34;78.24;98894.81;4947388;28;20118;-91
2022/02/21 04:02:19;;;;;;;2.28;0.68;;;;;;;5.19;78.47;98870.16;4940716;28;20523;-91
2022/02/21 04:04:48;;;;;;;3.78;0.70;;;;;;;5.16;79.99;98867.69;4941751;28;20047;-90
2022/02/21 04:07:16;;;;;;;4.18;0.60;;;;;;;4.95;79.23;98881.84;4933959;28;20106;-94
2022/02/21 04:09:44;;;;;;;2.60;0.60;;;;;;;4.74;80.08;98880.22;4943744;28;20051;-90
2022/02/21 04:12:13;;;;;;;3.88;0.60;;;;;;;4.85;77.31;98888.47;4952008;28;20893;-89
2022/02/21 04:14:40;;;;;;;5.90;0.98;;;;;;;5.00;78.40;98934.09;4946867;28;20099;-89
2022/02/21 04:17:07;;;;;;;2.63;0.50;;;;;;;4.88;77.60;98915.38;4943190;28;20047;-91
2022/02/21 04:19:34;;;;;;;3.00;1.00;;;;;;;4.67;77.35;98882.31;4954597;28;20043;-90
2022/02/21 04:22:01;;;;;;;4.63;0.60;;;;;;;4.64;78.42;98887.69;4948682;28;20359;-94
2022/02/21 04:24:29;;;;;;;2.90;0.82;;;;;;;4.68;80.13;98894.50;4951541;28;20967;-91
2022/02/21 04:26:59;;;;;;;5.97;0.98;;;;;;;4.79;78.33;98920.22;4949217;28;20135;-91
2022/02/21 04:29:29;;;;;;;3.25;0.90;;;;;;;4.46;80.26;98873.66;4948321;28;20051;-88
2022/02/21 04:31:56;;;;;;;4.80;0.77;;;;;;;4.51;79.53;98884.81;4951694;28;20058;-91
2022/02/21 04:34:25;;;;;;;6.22;0.93;;;;;;;4.51;79.71;98897.91;4940645;28;20185;-89
2022/02/21 04:36:52;;;;;;;6.43;0.93;;;;;;;4.69;79.62;98929.44;4947932;28;20082;-90
2022/02/21 04:39:25;;;;;;;7.13;1.05;;;;;;;4.40;80.60;98900.19;4947244;28;20134;-91
2022/02/21 04:41:52;;;;;;;6.18;0.95;;;;;;;4.45;83.35;98939.25;4949522;28;20052;-91
2022/02/21 04:44:19;;;;;;;4.95;1.00;;;;;;;4.33;83.12;98926.72;4941078;28;20044;-92
2022/02/21 04:46:48;;;;;;;8.75;0.90;;;;;;;4.53;81.33;98958.97;4955747;28;20055;-90
2022/02/21 04:49:17;;;;;;;9.93;1.10;;;;;;;4.48;81.75;98955.72;4944796;28;20051;-90
2022/02/21 04:51:47;;;;;;;3.92;0.93;;;;;;;4.38;84.57;98967.53;4952655;28;20051;-89
2022/02/21 04:54:13;;;;;;;2.55;0.60;;;;;;;4.44;82.28;98976.88;4937276;28;20055;-92
2022/02/21 04:56:40;;;;;;;6.72;1.27;;;;;;;4.35;85.92;98975.53;4937882;28;20087;-90
2022/02/21 04:59:07;;;;;;;5.97;1.00;;;;;;;4.30;82.94;98982.72;4953416;28;20130;-92
2022/02/21 05:01:34;;;;;;;9.52;1.08;;;;;;;4.14;84.38;98945.03;4952189;28;20047;-90
2022/02/21 05:04:03;;;;;;;5.50;1.45;;;;;;;4.24;84.13;98975.16;4940816;28;20075;-93
2022/02/21 05:06:32;;;;;;;5.85;1.25;;;;;;;4.30;83.87;98979.25;4955543;28;20035;-89
2022/02/21 05:09:01;;;;;;;6.13;1.00;;;;;;;4.53;79.00;98994.84;4952976;28;20117;-91
2022/02/21 05:11:29;;;;;;;3.22;0.77;;;;;;;4.67;78.32;99031.78;4968378;28;20482;-91
2022/02/21 05:13:56;;;;;;;7.28;1.23;;;;;;;4.42;83.11;98987.41;4958129;28;20511;-93
2022/02/21 05:16:27;;;;;;;6.10;1.05;;;;;;;4.12;85.46;98994.00;4950578;28;20062;-89
2022/02/21 05:19:13;;;;;;;2.95;0.80;;;;;;;4.10;82.46;98985.34;4963634;28;20519;-90
2022/02/21 05:21:41;;;;;;;6.22;0.70;;;;;;;3.92;83.76;98996.66;4951587;28;20130;-90
2022/02/21 05:24:18;;;;;;;3.60;0.88;;;;;;;3.95;84.19;99028.78;4954227;28;20058;-90
2022/02/21 05:26:50;;;;;;;4.40;0.85;;;;;;;4.03;83.99;99047.66;4947611;28;20544;-92
2022/02/21 05:29:18;;;;;;;5.45;1.02;;;;;;;3.95;83.28;99026.16;4953893;28;20557;-90
2022/02/21 05:31:46;;;;;;;5.80;0.88;;;;;;;3.96;84.47;99025.25;4952051;28;20059;-91
2022/02/21 05:34:15;;;;;;;5.13;0.77;;;;;;;3.97;83.26;99021.72;4951523;28;20050;-89
2022/02/21 05:36:42;;;;;;;6.68;1.10;;;;;;;3.97;83.82;99018.22;4941260;28;20486;-89
2022/02/21 05:39:13;;;;;;;4.33;0.83;;;;;;;3.97;84.49;99054.91;4948919;28;20081;-91
2022/02/21 05:41:39;;;;;;;7.13;1.08;;;;;;;3.73;85.47;99018.34;4959630;28;20057;-90
2022/02/21 05:44:07;;;;;;;8.02;1.65;;;;;;;3.66;86.10;99016.03;4956476;28;20134;-89
2022/02/21 05:46:37;;;;;;;7.40;1.73;;;;;;;3.64;87.83;99034.41;4934418;29;20409;-91
2022/02/21 05:49:06;;;;;;;11.30;1.60;;;;;;;3.84;83.39;99028.38;4950798;28;20125;-90
2022/02/21 05:51:36;;;;;;;7.57;1.70;;;;;;;4.00;82.90;99053.00;4963682;28;20134;-90
2022/02/21 05:54:05;;;;;;;7.97;1.67;;;;;;;3.91;82.63;99037.69;4936627;28;20146;-90
2022/02/21 05:56:33;;;;;;;9.48;1.77;;;;;;;3.92;81.58;99028.94;4946164;28;20475;-90
2022/02/21 05:59:00;;;;;;;12.05;2.28;;;;;;;4.11;79.22;99029.84;4961256;28;20047;-88
2022/02/21 06:01:28;;;;;;;10.63;1.70;;;;;;;4.46;77.84;99096.47;4953474;28;20086;-87
2022/02/21 06:03:57;;;;;;;8.80;1.50;;;;;;;4.26;77.85;99061.53;4952835;28;20051;-91
2022/02/21 06:06:26;;;;;;;13.70;2.08;;;;;;;4.13;80.38;99063.81;4938430;28;20047;-91
2022/02/21 06:08:54;;;;;;;10.60;2.03;;;;;;;4.04;79.12;99040.66;4957929;28;20051;-90
2022/02/21 06:11:21;;;;;;;13.02;2.50;;;;;;;4.19;79.47;99080.16;4934608;28;20063;-89
2022/02/21 06:13:49;;;;;;;14.45;1.90;;;;;;;4.07;78.25;99083.28;4958796;28;20109;-91
2022/02/21 06:16:17;;;;;;;12.68;2.05;;;;;;;4.01;80.58;99074.81;4940568;28;20499;-90
2022/02/21 06:18:49;;;;;;;11.18;1.52;;;;;;;4.12;77.74;99072.59;4951547;28;20414;-90
2022/02/21 06:21:17;;;;;;;9.93;2.00;;;;;;;4.18;74.04;99072.34;4950775;28;20047;-91
2022/02/21 06:23:46;;;;;;;15.23;1.90;;;;;;;4.11;74.10;99065.66;4939682;28;20059;-90
2022/02/21 06:26:17;;;;;;;9.60;1.65;;;;;;;4.13;75.12;99076.91;4942540;28;20055;-90
2022/02/21 06:28:44;;;;;;;12.73;2.13;;;;;;;4.19;75.06;99102.88;4945726;28;20084;-92
2022/02/21 06:31:12;;;;;;;10.27;1.45;;;;;;;3.97;75.14;99047.03;4947698;28;20067;-89
2022/02/21 06:33:39;;;;;;;14.73;1.83;;;;;;;4.15;72.74;99069.84;4952248;28;20044;-89
2022/02/21 06:36:07;;;;;;;12.82;1.90;;;;;;;3.91;72.32;99047.31;4954059;28;20057;-88
2022/02/21 06:38:37;;;;;;;11.93;1.48;;;;;;;4.10;72.02;99084.91;4954234;28;20582;-90
2022/02/21 06:41:07;;;;;;;10.90;1.83;;;;;;;4.12;75.72;99068.22;4950546;28;20127;-89
2022/02/21 06:43:40;;;;;;;13.15;2.00;;;;;;;4.16;72.33;99082.03;4947114;28;20071;-94
2022/02/21 06:46:24;;;;;;;;;;;;;;;;;;;;;
2022/02/21 06:48:59;;;;;;;9.55;1.95;;;;;;;4.36;69.45;99063.72;4952818;28;20047;-95
2022/02/21 06:51:35;;;;;;;7.72;1.50;;;;;;;4.47;70.22;99050.13;4932083;28;20042;-94
2022/02/21 06:54:09;;;;;;;13.55;2.35;;;;;;;4.46;70.17;99072.88;4908805;29;20052;-91
2022/02/21 06:56:37;;;;;;;11.57;2.05;;;;;;;4.38;72.61;99084.63;4928065;28;20134;-92
2022/02/21 06:59:09;;;;;;;10.20;2.17;;;;;;;4.17;71.00;99060.16;4944263;28;20126;-90
2022/02/21 07:01:38;;;;;;;12.63;1.88;;;;;;;4.61;67.64;99109.81;4950308;28;20071;-90
2022/02/21 07:04:05;;;;;;;11.30;2.15;;;;;;;4.80;66.95;99121.22;4952321;28;20138;-88
2022/02/21 07:06:35;;;;;;;10.05;1.92;;;;;;;4.91;66.38;99098.00;4943540;28;20134;-91
2022/02/21 07:09:05;;;;;;;11.25;2.20;;;;;;;5.03;66.67;99110.59;4943033;28;20051;-88
2022/02/21 07:11:32;;;;;;;13.07;2.28;;;;;;;4.85;68.35;99103.53;4942977;28;20143;-90
2022/02/21 07:14:02;;;;;;;10.20;2.20;;;;;;;4.81;69.71;99088.84;4944724;28;20055;-89
2022/02/21 07:16:31;;;;;;;14.00;2.28;;;;;;;5.13;65.03;99114.50;4938646;28;20153;-88
2022/02/21 07:18:59;;;;;;;16.15;2.00;;;;;;;5.23;64.53;99097.38;4958061;28;20066;-91
2022/02/21 07:21:31;;;;;;;14.07;2.30;;;;;;;5.42;64.46;99101.78;4942631;28;20446;-88
2022/02/21 07:23:59;;;;;;;8.18;1.85;;;;;;;5.51;64.83;99114.50;4943004;28;20062;-91
2022/02/21 07:26:30;;;;;;;10.98;1.65;;;;;;;5.31;63.02;99075.22;4943606;28;20091;-88
2022/02/21 07:28:58;;;;;;;14.45;2.20;;;;;;;5.42;62.87;99099.16;4948683;28;20048;-89
2022/02/21 07:31:32;;;;;;;10.45;1.70;;;;;;;5.26;63.33;99105.13;4943173;28;20048;-89
2022/02/21 07:34:01;;;;;;;9.45;1.90;;;;;;;5.36;63.24;99129.16;4952314;28;20110;-90
2022/02/21 07:36:31;;;;;;;9.93;1.38;;;;;;;5.20;64.95;99155.25;4928405;28;20049;-89
2022/02/21 07:39:01;;;;;;;4.70;0.90;;;;;;;5.09;66.71;99191.63;4972598;28;20565;-94
2022/02/21 07:41:30;;;;;;;5.07;0.70;;;;;;;4.85;69.34;99172.59;4952284;28;20129;-86
2022/02/21 07:43:59;;;;;;;2.13;0.60;;;;;;;4.75;71.72;99214.97;4941189;28;20067;-90
2022/02/21 07:46:28;;;;;;;2.65;0.93;;;;;;;4.21;72.85;99166.56;4929740;28;20156;-90
2022/02/21 07:48:56;;;;;;;3.10;0.45;;;;;;;4.34;73.98;99204.44;4964528;28;20043;-90
2022/02/21 07:51:24;;;;;;;4.35;0.68;;;;;;;4.16;75.36;99164.13;4952930;28;20075;-88
2022/02/21 07:53:59;;;;;;;4.05;0.82;;;;;;;4.10;75.40;99153.88;4953069;28;20122;-89
2022/02/21 07:56:48;;;;;;;6.03;0.93;;;;;;;4.14;75.82;99163.31;4948879;28;20083;-89
2022/02/21 07:59:19;;;;;;;12.55;1.88;;;;;;;4.38;76.97;99205.19;4954525;28;20051;-89
2022/02/21 08:01:48;;;;;;;8.93;1.50;;;;;;;4.43;76.85;99196.19;4949532;28;20565;-89
2022/02/21 08:04:15;;;;;;;8.18;1.40;;;;;;;4.37;76.25;99195.59;4935727;28;20094;-90
2022/02/21 08:06:44;;;;;;;6.85;1.63;;;;;;;4.46;76.72;99214.41;4949967;28;20466;-88
2022/02/21 08:09:11;;;;;;;12.00;1.42;;;;;;;4.62;76.00;99240.00;4949861;28;20521;-89
2022/02/21 08:11:41;;;;;;;12.55;1.88;;;;;;;4.58;75.38;99218.31;4952895;28;20067;-89
2022/02/21 08:14:08;;;;;;;9.77;1.73;;;;;;;4.60;75.43;99219.09;4947854;28;20047;-88
2022/02/21 08:16:49;;;;;;;8.02;1.38;;;;;;;4.65;74.68;99208.44;4953461;28;20040;-96
2022/02/21 08:19:41;;;;;;;11.02;1.80;;;;;;;4.90;74.76;99232.69;4934942;29;20515;-94
2022/02/21 08:22:09;;;;;;;11.82;1.40;;;;;;;4.81;74.18;99188.50;4947976;28;20434;-93
2022/02/21 08:24:54;;;;;;;6.95;1.70;;;;;;;4.71;74.23;99155.72;4967690;28;20066;-96
2022/02/21 08:27:41;;;;;;;10.73;2.13;;;;;;;4.79;74.39;99157.09;4959731;28;20047;-89
2022/02/21 08:30:16;;;;;;;11.48;2.30;;;;;;;4.90;74.89;99173.22;4953911;28;20514;-90
2022/02/21 08:32:43;;;;;;;11.90;1.90;;;;;;;5.16;74.79;99195.72;4960619;28;20039;-93
2022/02/21 08:35:11;;;;;;;9.43;1.95;;;;;;;5.05;75.76;99176.94;4970083;28;20035;-94
2022/02/21 08:37:39;;;;;;;8.77;1.55;;;;;;;4.99;74.37;99132.63;4969978;28;20509;-90
2022/02/21 08:40:08;;;;;;;11.13;1.75;;;;;;;5.26;74.00;99144.50;4962719;28;20035;-90
2022/02/21 08:42:38;;;;;;;6.97;1.65;;;;;;;5.54;72.84;99130.09;4971543;28;20054;-93
2022/02/21 08:45:06;;;;;;;;;;;;;;;6.11;70.80;99175.59;4959678;28;20083;-93
2022/02/21 08:47:34;;;;;;;7.65;1.00;;;;;;;6.04;70.42;99164.53;4947923;28;19988;-92
2022/02/21 08:50:05;;;;;;;9.45;1.90;;;;;;;6.23;69.01;99135.56;4950900;28;20049;-89
2022/02/21 08:52:34;;;;;;;8.70;1.83;;;;;;;6.56;67.60;99140.94;4954228;28;20065;-90
2022/02/21 08:55:03;;;;;;;8.43;1.38;;;;;;;7.01;67.40;99182.44;4934539;28;20114;-90
2022/02/21 08:57:30;;;;;;;5.78;1.30;;;;;;;7.23;66.33;99179.56;4947902;28;20043;-91
2022/02/21 09:00:01;;;;;;;3.85;0.80;;;;;;;7.01;65.97;99171.94;4947119;28;20051;-90
2022/02/21 09:02:29;;;;;;;4.90;0.90;;;;;;;7.19;66.01;99189.41;4950743;28;20110;-89
2022/02/21 09:05:18;;;;;;;5.45;1.00;;;;;;;7.42;65.56;99195.22;4936732;28;20051;-91
2022/02/21 09:07:46;;;;;;;3.08;0.90;;;;;;;7.70;63.76;99183.16;4934436;28;20219;-89
2022/02/21 09:10:13;;;;;;;6.38;0.98;;;;;;;7.30;64.62;99157.22;4957846;28;20410;-88
2022/02/21 09:12:41;;;;;;;5.22;0.95;;;;;;;7.67;63.80;99179.81;4947689;28;20051;-90
2022/02/21 09:15:08;;;;;;;5.75;0.93;;;;;;;7.55;63.09;99123.38;4952057;28;20514;-92
2022/02/21 09:17:36;;;;;;;4.63;0.95;;;;;;;7.76;62.20;99152.94;4952287;28;20058;-90
2022/02/21 09:20:03;;;;;;;4.57;1.20;;;;;;;7.87;61.75;99162.91;4957065;28;20137;-93
2022/02/21 09:22:31;;;;;;;3.17;0.80;;;;;;;8.06;60.91;99168.84;4952667;28;20180;-90
2022/02/21 09:24:57;;;;;;;5.28;1.20;;;;;;;7.85;60.59;99152.47;4957801;28;20134;-89
2022/02/21 09:27:33;;;;;;;6.47;1.20;;;;;;;7.53;61.62;99166.53;4944111;28;20175;-91
2022/02/21 09:30:06;;;;;;;6.63;1.48;;;;;;;7.28;62.79;99149.41;4945371;28;20046;-89
2022/02/21 09:32:38;;;;;;;4.82;1.33;;;;;;;7.56;62.49;99195.34;4945671;28;20804;-90
2022/02/21 09:35:18;;;;;;;6.47;1.17;;;;;;;7.69;61.35;99180.59;4943376;28;20052;-91
2022/02/21 09:37:46;;;;;;;11.52;1.60;;;;;;;7.74;60.57;99196.97;4944234;28;20059;-91
2022/02/21 09:40:17;;;;;;;8.00;1.60;;;;;;;8.01;59.76;99194.63;4951540;28;20075;-90
2022/02/21 09:42:46;;;;;;;7.65;1.50;;;;;;;7.93;59.07;99192.41;4964516;28;20141;-89
2022/02/21 09:45:18;;;;;;;9.02;1.90;;;;;;;7.81;59.04;99201.00;4968822;28;20686;-89
2022/02/21 09:47:52;;;;;;;11.95;1.75;;;;;;;7.38;58.28;99174.34;4946394;28;20054;-88
2022/02/21 09:50:42;;;;;;;7.90;1.70;;;;;;;7.26;58.79;99201.28;4930239;29;20118;-89
2022/02/21 09:53:11;;;;;;;6.97;1.43;;;;;;;7.18;58.39;99207.91;4933974;28;20510;-90
2022/02/21 09:55:50;;;;;;;10.15;2.15;;;;;;;6.99;57.58;99192.22;4938059;28;20089;-90
2022/02/21 09:58:20;;;;;;;9.57;1.92;;;;;;;7.10;57.04;99203.03;4952071;28;20483;-89
2022/02/21 10:00:50;;;;;;;10.55;1.75;;;;;;;7.02;56.99;99186.78;4955607;28;20082;-90
2022/02/21 10:03:45;;;;;;;9.52;1.95;;;;;;;7.72;54.52;99178.63;4950626;28;20054;-91
2022/02/21 10:06:20;;;;;;;9.32;1.58;;;;;;;7.99;53.58;99171.00;4946223;28;20051;-90
2022/02/21 10:09:09;;;;;;;8.07;1.50;;;;;;;8.02;52.97;99155.00;4951624;28;20052;-91
2022/02/21 10:11:42;;;;;;;9.05;1.90;;;;;;;8.48;50.93;99165.59;4968107;28;20137;-90
2022/02/21 10:14:13;;;;;;;9.05;2.13;;;;;;;8.35;50.30;99175.97;4965454;28;20486;-89
2022/02/21 10:16:59;;;;;;;7.82;1.98;;;;;;;7.94;51.21;99178.28;4951458;28;20718;-89
2022/02/21 10:19:42;;;;;;;8.85;1.88;;;;;;;7.81;51.33;99179.91;4961848;28;20070;-90
2022/02/21 10:22:14;;;;;;;6.40;1.67;;;;;;;7.83;51.66;99187.72;4955068;28;20491;-90
2022/02/21 10:24:41;;;;;;;6.75;1.40;;;;;;;7.86;52.33;99198.13;4948601;28;20127;-91
2022/02/21 10:27:29;;;;;;;6.43;1.52;;;;;;;7.38;51.93;99153.28;4957099;28;20067;-90
2022/02/21 10:30:04;;;;;;;9.93;1.38;;;;;;;7.70;52.39;99216.53;4948442;28;20043;-89
2022/02/21 10:33:11;;;;;;;8.50;1.42;;;;;;;7.62;53.18;99206.41;4929892;28;20138;-90
2022/02/21 10:35:39;;;;;;;7.20;1.48;;;;;;;7.54;53.83;99258.66;4958234;28;20063;-92
2022/02/21 10:38:09;;;;;;;4.88;1.05;;;;;;;7.22;54.38;99201.56;4937476;28;20098;-89
2022/02/21 10:40:38;;;;;;;6.93;1.77;;;;;;;7.30;54.50;99207.25;4948224;28;20126;-89
2022/02/21 10:43:15;;;;;;;7.07;1.60;;;;;;;7.35;54.89;99248.22;4940983;28;20051;-90
2022/02/21 10:45:45;;;;;;;5.25;0.77;;;;;;;7.36;53.91;99233.28;4945612;28;20062;-91
2022/02/21 10:48:18;;;;;;;8.45;1.33;;;;;;;7.28;54.33;99235.44;4923953;29;20506;-90
2022/02/21 10:50:54;;;;;;;7.97;1.20;;;;;;;7.25;54.32;99240.88;4961170;28;20061;-91
2022/02/21 10:53:23;;;;;;;4.60;1.00;;;;;;;7.10;54.32;99215.34;4949624;28;20419;-91
2022/02/21 10:55:51;;;;;;;8.57;1.67;;;;;;;7.12;55.66;99234.53;4955390;28;20078;-90
2022/02/21 10:58:27;;;;;;;4.70;1.63;;;;;;;7.02;56.16;99215.75;4936213;28;20068;-89
2022/02/21 11:00:55;;;;;;;6.07;1.50;;;;;;;7.18;56.12;99239.50;4947295;28;20043;-90
2022/02/21 11:03:27;;;;;;;5.15;1.00;;;;;;;7.26;55.91;99245.22;4948066;28;20050;-88
2022/02/21 11:06:05;;;;;;;6.70;0.80;;;;;;;7.18;54.98;99215.81;4940832;28;20051;-89
2022/02/21 11:08:48;;;;;;;3.60;0.77;;;;;;;7.10;55.34;99178.47;4941827;28;20054;-90
2022/02/21 11:11:21;;;;;;;4.40;0.90;;;;;;;8.15;53.46;99209.69;4955212;28;20050;-88
2022/02/21 11:14:11;;;;;;;5.88;1.00;;;;;;;8.51;50.64;99172.47;4954154;28;20066;-89
2022/02/21 11:17:09;;;;;;;5.18;1.02;;;;;;;9.05;48.27;99198.25;4936775;28;20050;-89
2022/02/21 11:19:49;;;;;;;4.68;1.00;;;;;;;9.32;47.39;99174.59;4945832;28;20142;-88
2022/02/21 11:22:18;;;;;;;3.33;0.70;;;;;;;9.52;46.01;99183.97;4949939;28;20047;-89
2022/02/21 11:25:33;;;;;;;4.85;0.95;;;;;;;9.63;46.34;99168.28;4953474;28;20039;-92
2022/02/21 11:28:27;;;;;;;3.85;0.98;;;;;;;9.23;46.46;99138.22;4949218;28;20142;-89
2022/02/21 11:31:05;;;;;;;6.60;1.20;;;;;;;8.96;47.45;99158.38;4945081;28;20047;-90
2022/02/21 11:34:05;;;;;;;5.20;0.77;;;;;;;8.38;48.51;99136.25;4938071;28;21028;-89
2022/02/21 11:36:34;;;;;;;7.70;0.85;;;;;;;8.13;49.48;99132.44;4955267;28;20054;-91
2022/02/21 11:39:46;;;;;;;7.78;1.10;;;;;;;8.10;50.25;99149.28;4952044;28;20454;-89
2022/02/21 11:42:39;;;;;;;9.23;1.40;;;;;;;8.12;51.14;99128.97;4960585;28;20047;-94
2022/02/21 11:45:28;;;;;;;12.20;1.45;;;;;;;8.13;51.25;99143.00;4948499;28;20058;-94
2022/02/21 11:51:41;;;;;;;6.68;0.75;;;;;;;8.10;51.85;99115.00;4956184;28;20146;-89
2022/02/21 11:55:08;;;;;;;7.15;1.08;;;;;;;8.18;52.84;99122.50;4936686;29;20047;-91
2022/02/21 12:01:10;;;;;;;8.00;1.00;;;;;;;8.27;52.98;99063.94;4916583;28;20174;-90
2022/02/21 12:04:16;;;;;;;8.65;1.63;;;;;;;8.46;53.08;99106.78;4935099;28;20510;-88
2022/02/21 12:07:02;;;;;;;7.57;0.90;;;;;;;8.23;53.21;99089.63;4949648;28;20055;-89
2022/02/21 12:10:06;;;;;;;6.43;1.00;;;;;;;8.05;53.60;99091.53;4951739;28;20047;-94
2022/02/21 12:12:58;;;;;;;6.93;1.10;;;;;;;7.94;54.03;99091.31;4941079;28;20597;-88
2022/02/21 12:16:16;;;;;;;5.55;0.85;;;;;;;7.80;54.90;99072.78;4950766;28;20557;-92